Weather observations for the past three days for
Mount Pleasant, Mount Pleasant Municipal Airport
Imperial (Metric)
Date Time (cdt) Wind (mph) Vis. (mi.) Weather Sky Cond. Temperature (ºF) Relative Humidity Wind Chill (°F) Heat Index (°F) Pressure Precipitation (in)
Air Dwpt 6 hour altimeter (in) sea level (mb) 1 hr 3 hr 6 hr
Max. Min.
05 04:55 N 10 G 18 10.00 Light Drizzle SCT006 48.2 32 54% 44 29.82 0.0
05 04:35 N 16 10.00 Partly Cloudy SCT090 50 30.2 47% 45 29.8 0.0
05 04:15 N 12 10.00 Partly Cloudy SCT100 50 30.2 47% 46 29.8 0.0
05 03:55 N 16 G 20 10.00 Partly Cloudy SCT100 50 30.2 47% 45 29.76 0.0
05 03:35 N 14 10.00 Partly Cloudy SCT100 50 30.2 47% 45 29.76 0.0
05 03:15 N 13 10.00 Partly Cloudy SCT100 51.8 32 47% 29.78 0.0
05 02:55 N 12 10.00 Partly Cloudy SCT100 51.8 32 47% 29.78 0.0
05 02:35 N 7 10.00 Fair CLR 50 33.8 54% 48 29.78 0.0
05 02:15 NW 6 10.00 Fair CLR 51.8 32 47% 29.77 0.0
05 01:55 NW 7 10.00 Fair CLR 50 32 50% 48 29.76 0.0
05 01:35 NW 5 10.00 Fair CLR 51.8 32 47% 29.75 0.0
05 01:15 NW 10 10.00 Fair CLR 53.6 32 44% 29.73 0.0
05 00:55 NW 9 10.00 Fair CLR 53.6 32 44% 29.72 0.0
05 00:35 NW 10 10.00 Fair CLR 53.6 32 44% 29.7 0.0
05 00:15 NW 10 G 17 10.00 Fair CLR 55.4 32 41% 29.69 0.0
04 23:55 N 14 G 20 10.00 Fair CLR 55.4 32 41% 29.67 0.0
04 23:35 N 18 G 26 10.00 Fair CLR 57.2 32 39% 29.66 0.0
04 23:15 N 18 G 24 10.00 Fair CLR 57.2 32 39% 29.67 0.0
04 22:55 N 15 10.00 Fair CLR 57.2 33.8 41% 29.68 0.0
04 22:35 N 12 10.00 Fair CLR 59 35.6 42% 29.68 0.0
04 22:15 N 14 10.00 Fair CLR 59 35.6 42% 29.68 0.0
04 21:55 N 17 10.00 Fair CLR 60.8 35.6 39% 29.66 0.0
04 21:35 N 16 G 22 10.00 Fair CLR 62.6 35.6 37% 29.65 0.0
04 21:15 N 16 G 21 10.00 Fair CLR 62.6 37.4 39% 29.63 0.0
04 20:55 N 15 10.00 Fair CLR 64.4 37.4 37% 29.61 0.0
04 20:35 N 16 10.00 Fair CLR 64.4 41 43% 29.59 0.0
04 20:15 N 13 10.00 Fair CLR 68 44.6 43% 29.57 0.0
04 19:55 W 6 10.00 Fair CLR 68 51.8 56% 29.56 0.0
04 19:35 W 6 10.00 Partly Cloudy SCT005 SCT011 SCT095 69.8 50 50% 29.54 0.0
04 19:15 SW 10 10.00 Light Rain SCT005 SCT011 SCT070 69.8 51.8 53% 29.51 0.0
04 18:55 Calm 10.00 Partly Cloudy SCT080 SCT090 71.6 48.2 44% 29.53 0.0
04 18:35 W 8 G 18 10.00 Partly Cloudy SCT080 71.6 46.4 41% 29.52 0.0
04 18:15 N 9 10.00 Partly Cloudy SCT090 73.4 48.2 41% 29.52 0.0
04 17:55 Calm 10.00 Fair CLR 71.6 46.4 41% 29.5 0.0
04 17:35 N 7 10.00 Partly Cloudy SCT090 73.4 44.6 36% 29.5 0.0
04 17:10 W 12 G 22 10.00 Fair CLR 78.8 46.4 32% 79 29.51 0.0
04 16:55 SW 16 G 24 10.00 Fair CLR 82.4 46.4 28% 81 29.5 0.0
04 16:35 SW 16 G 20 10.00 Fair CLR 82.4 44.6 26% 81 29.5 0.0
04 16:15 SW 15 G 24 10.00 Fair CLR 80.6 44.6 28% 79 29.5 0.0
04 15:55 SW 16 G 24 10.00 Fair CLR 80.6 44.6 28% 79 29.51 0.0
04 15:35 SW 17 G 23 10.00 Fair CLR 82.4 46.4 28% 81 29.52 0.0
04 15:15 SW 15 G 23 10.00 Fair CLR 80.6 46.4 30% 80 29.53 0.0
04 14:55 SW 16 10.00 Fair CLR 80.6 44.6 28% 79 29.54 0.0
04 14:35 SW 14 10.00 Fair CLR 82.4 44.6 26% 81 29.55 0.0
04 14:15 SW 10 10.00 Fair CLR 80.6 44.6 28% 79 29.55 0.0
04 13:55 SW 15 G 21 10.00 Fair CLR 80.6 46.4 30% 80 29.55 0.0
04 13:35 SW 13 G 18 10.00 Fair CLR 80.6 46.4 30% 80 29.55 0.0
04 13:15 SW 15 G 20 10.00 Fair CLR 78.8 44.6 30% 79 29.55 0.0
04 12:55 SW 13 G 16 10.00 Fair CLR 78.8 46.4 32% 79 29.55 0.0
04 12:35 SW 15 10.00 Fair CLR 78.8 46.4 32% 79 29.56 0.0
04 12:15 SW 15 10.00 Fair CLR 77 48.2 36% 78 29.56 0.0
04 11:55 SW 15 G 21 10.00 Fair CLR 77 50 39% 78 29.57 0.0
04 11:35 SW 17 10.00 Fair CLR 77 50 39% 78 29.57 0.0
04 11:15 SW 17 10.00 Fair CLR 73.4 48.2 41% 29.59 0.0
04 10:55 SW 15 G 22 10.00 Fair CLR 73.4 48.2 41% 29.59 0.0
04 10:35 SW 17 10.00 Fair CLR 71.6 48.2 44% 29.59 0.0
04 10:15 SW 16 10.00 Fair CLR 71.6 48.2 44% 29.6 0.0
04 09:55 SW 16 10.00 Fair CLR 71.6 48.2 44% 29.6 0.0
04 09:35 SW 15 10.00 Fair CLR 69.8 50 50% 29.6 0.0
04 09:15 SW 14 G 18 10.00 Fair CLR 68 50 53% 29.61 0.0
04 08:55 S 10 10.00 Fair CLR 66.2 48.2 52% 29.62 0.0
04 08:35 S 12 10.00 Fair CLR 62.6 48.2 60% 29.62 0.0
04 08:15 S 10 10.00 Fair CLR 59 46.4 63% 29.63 0.0
04 07:55 S 9 10.00 Fair CLR 55.4 46.4 72% 29.64 0.0
04 07:35 S 8 10.00 Fair CLR 53.6 46.4 77% 29.64 0.0
04 07:15 S 5 10.00 Fair CLR 51.8 44.6 77% 29.65 0.0
04 06:55 S 7 10.00 Fair CLR 50 42.8 76% 48 29.65 0.0
04 06:35 S 8 10.00 Fair CLR 46.4 42.8 87% 43 29.65 0.0
04 06:15 S 7 10.00 Fair CLR 44.6 41 87% 41 29.65 0.0
04 05:55 S 6 10.00 Fair CLR 44.6 39.2 81% 42 29.65 0.0
04 05:35 S 5 10.00 Fair CLR 44.6 39.2 81% 43 29.65 0.0
04 05:15 S 5 10.00 Fair CLR 46.4 39.2 76% 45 29.66 0.0
04 04:55 S 5 10.00 Fair CLR 46.4 39.2 76% 45 29.67 0.0
04 04:15 SW 5 10.00 Fair CLR 46.4 41 82% 45 29.68 0.0
04 03:55 S 3 10.00 Fair CLR 46.4 41 82% 29.68 0.0
04 03:35 S 5 10.00 Fair CLR 46.4 39.2 76% 45 29.69 0.0
04 03:15 S 5 10.00 Fair CLR 46.4 41 82% 45 29.7 0.0
04 02:55 S 6 10.00 Fair CLR 46.4 41 82% 44 29.7 0.0
04 02:35 S 7 10.00 Fair CLR 50 41 71% 48 29.71 0.0
04 02:15 SW 5 10.00 Fair CLR 48.2 41 76% 47 29.71 0.0
04 01:55 SW 5 10.00 Fair CLR 50 41 71% 49 29.71 0.0
04 01:35 SW 7 10.00 Fair CLR 50 41 71% 48 29.73 0.0
04 01:15 SW 5 10.00 Fair CLR 48.2 41 76% 47 29.73 0.0
04 00:55 SW 5 10.00 Fair CLR 51.8 41 67% 29.73 0.0
04 00:35 W 3 10.00 Fair CLR 53.6 41 63% 29.73 0.0
04 00:15 SW 3 10.00 Fair CLR 53.6 41 63% 29.73 0.0
03 23:55 W 3 10.00 Fair CLR 55.4 41 59% 29.74 0.0
03 23:35 W 6 10.00 Fair CLR 55.4 41 59% 29.75 0.0
03 23:15 SW 6 10.00 Fair CLR 55.4 41 59% 29.75 0.0
03 22:55 SW 5 10.00 Fair CLR 55.4 41 59% 29.76 0.0
03 22:35 SW 7 10.00 Fair CLR 53.6 39.2 58% 29.76 0.0
03 22:15 SW 6 10.00 Fair CLR 55.4 41 59% 29.77 0.0
03 21:55 SW 6 10.00 Fair CLR 55.4 41 59% 29.76 0.0
03 21:35 SW 6 10.00 Fair CLR 55.4 41 59% 29.76 0.0
03 21:15 SW 6 10.00 Fair CLR 57.2 41 55% 29.76 0.0
03 20:55 SW 7 10.00 Fair CLR 57.2 41 55% 29.76 0.0
03 20:35 SW 8 10.00 Fair CLR 59 41 51% 29.75 0.0
03 20:15 SW 8 10.00 Fair CLR 59 41 51% 29.75 0.0
03 19:55 SW 7 10.00 Fair CLR 62.6 41 45% 29.75 0.0
03 19:35 SW 9 10.00 Fair CLR 66.2 39.2 37% 29.75 0.0
03 19:15 SW 10 10.00 Fair CLR 68 39.2 35% 29.75 0.0
03 18:55 SW 14 10.00 Fair CLR 69.8 37.4 31% 29.75 0.0
03 18:35 W 15 10.00 Fair CLR 69.8 37.4 31% 29.75 0.0
03 18:15 W 15 G 18 10.00 Fair CLR 69.8 37.4 31% 29.75 0.0
03 17:55 W 12 10.00 Fair CLR 69.8 39.2 33% 29.75 0.0
03 17:35 W 14 G 18 10.00 Fair CLR 69.8 37.4 31% 29.75 0.0
03 17:15 W 15 10.00 Fair CLR 71.6 39.2 31% 29.76 0.0
03 16:55 W 16 G 20 10.00 Fair CLR 71.6 41 33% 29.76 0.0
03 16:35 W 15 G 22 10.00 Fair CLR 71.6 41 33% 29.76 0.0
03 16:15 W 16 G 24 10.00 Fair CLR 71.6 42.8 36% 29.77 0.0
03 15:55 W 18 G 23 10.00 Fair CLR 69.8 42.8 38% 29.78 0.0
03 15:35 W 13 G 20 10.00 Fair CLR 68 42.8 40% 29.78 0.0
03 15:15 W 12 10.00 Fair CLR 66.2 42.8 43% 29.79 0.0
03 14:55 W 14 G 23 10.00 Fair CLR 68 42.8 40% 29.79 0.0
03 14:35 SW 18 G 28 10.00 Fair CLR 64.4 41 43% 29.8 0.0
03 14:15 SW 15 G 22 10.00 Fair CLR 64.4 41 43% 29.79 0.0
03 13:35 W 21 G 26 10.00 Fair and Breezy CLR 68 41 38% 29.81 0.0
03 13:15 SW 22 G 26 10.00 Fair and Breezy CLR 64.4 41 43% 29.82 0.0
03 12:55 SW 16 G 24 10.00 Fair CLR 62.6 39.2 42% 29.82 0.0
03 12:35 W 18 10.00 Fair CLR 62.6 37.4 39% 29.83 0.0
03 12:15 W 22 G 32 10.00 Fair and Breezy CLR 64.4 37.4 37% 29.83 0.0
03 11:55 SW 22 G 32 10.00 Fair and Breezy CLR 62.6 37.4 39% 29.83 0.0
03 11:35 SW 23 G 30 10.00 Fair and Breezy CLR 62.6 37.4 39% 29.84 0.0
03 11:15 SW 20 G 30 10.00 Fair CLR 60.8 37.4 42% 29.85 0.0
03 10:55 SW 21 G 33 10.00 Fair and Breezy CLR 60.8 37.4 42% 29.85 0.0
03 10:35 SW 20 G 24 10.00 Fair CLR 59 39.2 48% 29.86 0.0
03 10:15 SW 16 G 24 10.00 Fair CLR 55.4 37.4 51% 29.86 0.0
03 09:55 S 16 G 21 10.00 Fair CLR 53.6 37.4 54% 29.87 0.0
03 09:35 S 17 10.00 Fair CLR 53.6 37.4 54% 29.88 0.0
03 09:15 S 18 G 22 10.00 Fair CLR 51.8 35.6 54% 29.89 0.0
03 08:55 SW 13 G 18 10.00 Fair CLR 50 35.6 58% 46 29.91 0.0
03 08:35 S 12 G 17 10.00 Fair CLR 50 35.6 58% 46 29.91 0.0
03 08:15 S 10 10.00 Fair CLR 50 35.6 58% 46 29.9 0.0
03 07:35 S 13 10.00 Fair CLR 46.4 35.6 66% 41 29.95 0.0
03 07:15 SW 10 10.00 Fair CLR 46.4 33.8 62% 42 29.96 0.0
03 06:55 SW 6 10.00 Fair CLR 44.6 35.6 71% 42 29.96 0.0
03 06:35 S 6 10.00 Fair CLR 44.6 33.8 66% 42 29.94 0.0
03 06:15 S 10 10.00 Fair CLR 44.6 33.8 66% 40 29.93 0.0
03 05:55 S 14 10.00 Fair CLR 44.6 33.8 66% 39 29.94 0.0
03 05:35 S 7 10.00 Fair CLR 42.8 33.8 71% 39 29.96 0.0
03 05:15 SW 7 10.00 Fair CLR 41 33.8 76% 37 29.97 0.0
03 04:55 S 8 10.00 Fair CLR 41 33.8 76% 36 29.96 0.0
03 04:35 S 7 10.00 Fair CLR 41 33.8 76% 37 29.96 0.0
03 04:15 S 8 10.00 Fair CLR 41 33.8 76% 36 29.97 0.0
03 03:55 S 8 10.00 Fair CLR 42.8 33.8 71% 39 29.98 0.0
03 03:35 S 8 10.00 Fair CLR 42.8 32 66% 39 29.98 0.0
03 03:15 S 9 10.00 Fair CLR 42.8 33.8 71% 38 29.98 0.0
03 02:55 S 9 10.00 Fair CLR 42.8 33.8 71% 38 29.98 0.0
03 02:35 S 8 10.00 Fair CLR 42.8 33.8 71% 39 29.98 0.0
03 02:15 S 9 10.00 Fair CLR 42.8 33.8 71% 38 29.99 0.0
03 01:55 S 9 10.00 Fair CLR 42.8 33.8 71% 38 30 0.0
03 01:35 S 8 10.00 Fair CLR 42.8 33.8 71% 39 30 0.0
03 01:15 S 7 10.00 Fair CLR 42.8 33.8 71% 39 30.01 0.0
03 00:55 S 7 10.00 Fair CLR 42.8 33.8 71% 39 30.01 0.0
03 00:35 S 9 10.00 Fair CLR 42.8 33.8 71% 38 30.01 0.0
03 00:15 S 8 10.00 Fair CLR 42.8 32 66% 39 30.02 0.0
02 23:55 S 7 10.00 Fair CLR 44.6 32 61% 41 30.02 0.0
02 23:15 S 7 10.00 Fair CLR 42.8 33.8 71% 39 30.03 0.0
02 22:55 S 7 10.00 Fair CLR 42.8 33.8 71% 39 30.03 0.0
02 22:35 S 7 10.00 Fair CLR 44.6 33.8 66% 41 30.04 0.0
02 22:15 S 6 10.00 Fair CLR 44.6 33.8 66% 42 30.04 0.0
02 21:55 S 6 10.00 Fair CLR 46.4 32 57% 44 30.05 0.0
02 21:35 S 5 10.00 Fair CLR 46.4 32 57% 45 30.05 0.0
02 21:15 S 5 10.00 Fair CLR 48.2 32 54% 47 30.04 0.0
02 20:55 S 5 10.00 Fair CLR 51.8 28.4 41% 30.04 0.0
02 20:35 S 6 10.00 Fair CLR 51.8 30.2 44% 30.04 0.0
02 20:15 S 5 10.00 Fair CLR 51.8 30.2 44% 30.03 0.0
02 19:55 SW 5 10.00 Fair CLR 53.6 30.2 41% 30.04 0.0
02 19:35 SW 3 10.00 Fair CLR 55.4 28.4 36% 30.04 0.0
02 19:15 SW 5 10.00 Fair CLR 59 26.6 29% 30.04 0.0
02 18:35 SW 5 10.00 Fair CLR 59 24.8 27% 30.05 0.0
02 18:15 W 5 10.00 Fair CLR 59 26.6 29% 30.06 0.0
02 17:55 NW 5 10.00 Fair CLR 59 24.8 27% 30.06 0.0
02 17:35 Calm 10.00 Fair CLR 59 26.6 29% 30.06 0.0
02 17:15 W 7 10.00 Fair CLR 59 26.6 29% 30.06 0.0
02 16:55 W 8 10.00 Fair CLR 59 26.6 29% 30.07 0.0
02 16:35 NW 7 10.00 Fair CLR 59 26.6 29% 30.08 0.0
02 16:15 NW 6 10.00 Fair CLR 59 24.8 27% 30.08 0.0
02 15:35 N 3 10.00 Fair CLR 57.2 26.6 31% 30.09 0.0
02 15:15 NW 8 10.00 Fair CLR 57.2 26.6 31% 30.1 0.0
02 14:55 SW 6 10.00 Fair CLR 59 26.6 29% 30.1 0.0
02 14:35 NW 5 10.00 Fair CLR 59 24.8 27% 30.11 0.0
02 14:15 N 3 G 9 10.00 Fair CLR 55.4 23 28% 30.12 0.0
02 13:35 Calm 10.00 Fair CLR 55.4 26.6 33% 30.12 0.0
02 13:15 SE 6 10.00 Fair CLR 55.4 26.6 33% 30.13 0.0
02 12:55 SE 5 10.00 Fair CLR 55.4 24.8 31% 30.13 0.0
02 12:35 Calm 10.00 Fair CLR 53.6 23 30% 30.14 0.0
02 12:15 W 3 10.00 Fair CLR 55.4 26.6 33% 30.15 0.0
02 11:55 Calm 10.00 Fair CLR 53.6 26.6 35% 30.15 0.0
02 11:35 N 5 10.00 Fair CLR 51.8 26.6 38% 30.15 0.0
02 11:15 N 7 10.00 Partly Cloudy SCT060 SCT075 53.6 28.4 38% 30.15 0.0
02 10:35 NE 3 10.00 Fair CLR 53.6 26.6 35% 30.15 0.0
02 10:15 Calm 10.00 Partly Cloudy SCT040 51.8 33.8 50% 30.15 0.0
02 09:55 Calm 10.00 Fair CLR 50 35.6 58% 30.15 0.0
02 09:35 Calm 10.00 Fair CLR 50 37.4 62% 30.15 0.0
02 09:15 Calm 10.00 Fair CLR 48.2 37.4 66% 30.15 0.0
02 08:55 E 3 10.00 Fair CLR 46.4 37.4 71% 30.15 0.0
02 08:35 SE 3 10.00 Fair CLR 44.6 37.4 76% 30.15 0.0
02 07:55 NE 5 10.00 Fair CLR 42.8 37.4 81% 41 30.14 0.0
02 07:35 NE 5 10.00 Fair CLR 41 35.6 81% 38 30.14 0.0
02 07:15 NE 3 10.00 Fair CLR 41 35.6 81% 30.13 0.0
02 06:55 NE 5 10.00 Fair CLR 39.2 35.6 87% 36 30.13 0.0
02 06:35 N 6 10.00 Partly Cloudy SCT090 37.4 35.6 93% 33 30.12 0.0
02 06:15 NE 3 10.00 Partly Cloudy SCT090 39.2 35.6 87% 30.11 0.0
02 05:55 NE 3 10.00 Partly Cloudy SCT090 37.4 33.8 87% 30.12 0.0
02 05:35 NE 6 10.00 Partly Cloudy SCT090 39.2 35.6 87% 36 30.11 0.0
Date Time (cdt) Wind (mph) Vis. (mi.) Weather Sky Cond. Air Dwpt Max. Min. Relative Humidity Wind Chill (°F) Heat Index (°F) altimeter (in) sea level (mb) 1 hr 3 hr 6 hr
6 hour
Temperature (ºF) Pressure Precipitation (in)